Time;durP1;ratioP1;P1;durP2;ratioP2;P2;SDS_P1;SDS_P2;PMS_P1;PMS_P2;Temp;Humidity;BMP_temperature;BMP_pressure;BME280_temperature;BME280_humidity;BME280_pressure;Samples;Min_cycle;Max_cycle;Signal;HPM_P1;HPM_P2
2023/03/27 00:00:19;;;;;;;10.60;3.35;;;;;;;7.53;100.00;100884.94;5055768;28;20023;-78
2023/03/27 00:02:48;;;;;;;7.30;2.78;;;;;;;7.50;100.00;100883.53;5071734;28;20020;-78
2023/03/27 00:05:19;;;;;;;6.03;2.40;;;;;;;7.53;100.00;100896.84;5054276;28;20086;-78
2023/03/27 00:07:50;;;;;;;7.03;2.75;;;;;;;7.49;100.00;100912.25;5098288;28;20031;-78
2023/03/27 00:10:15;;;;;;;7.22;2.92;;;;;;;7.51;100.00;100923.06;5082294;28;20026;-78
2023/03/27 00:12:43;;;;;;;9.80;3.28;;;;;;;7.50;100.00;100930.53;5045157;28;20476;-78
2023/03/27 00:15:14;;;;;;;7.10;3.40;;;;;;;7.53;100.00;100943.00;5078351;28;20119;-79
2023/03/27 00:17:40;;;;;;;10.80;3.40;;;;;;;7.50;100.00;100938.00;5063246;28;20028;-78
2023/03/27 00:20:06;;;;;;;8.60;3.35;;;;;;;7.49;100.00;100941.84;5056461;28;20035;-78
2023/03/27 00:22:31;;;;;;;5.85;2.90;;;;;;;7.46;100.00;100942.38;5061773;28;20339;-78
2023/03/27 00:24:56;;;;;;;6.25;2.88;;;;;;;7.46;100.00;100939.59;5076253;28;20081;-78
2023/03/27 00:27:23;;;;;;;6.20;2.35;;;;;;;7.45;100.00;100944.31;5051783;28;20026;-78
2023/03/27 00:29:49;;;;;;;7.85;2.95;;;;;;;7.45;100.00;100941.53;5068668;28;20047;-78
2023/03/27 00:32:14;;;;;;;7.22;3.28;;;;;;;7.42;100.00;100938.47;5078846;28;20024;-78
2023/03/27 00:34:40;;;;;;;6.90;3.03;;;;;;;7.40;100.00;100960.84;5057409;28;20480;-78
2023/03/27 00:37:06;;;;;;;6.30;3.22;;;;;;;7.32;100.00;100972.34;5081304;28;20028;-78
2023/03/27 00:39:31;;;;;;;8.02;3.30;;;;;;;7.26;100.00;100979.75;5094617;28;20515;-78
2023/03/27 00:41:57;;;;;;;9.00;2.70;;;;;;;7.33;100.00;100980.41;5048347;28;20023;-78
2023/03/27 00:44:24;;;;;;;6.55;2.50;;;;;;;7.31;100.00;100984.50;5078267;28;20032;-78
2023/03/27 00:46:50;;;;;;;6.40;2.80;;;;;;;7.30;100.00;100980.91;5084671;28;20376;-78
2023/03/27 00:49:16;;;;;;;9.18;2.60;;;;;;;7.31;100.00;100982.56;5068082;28;20027;-78
2023/03/27 00:51:42;;;;;;;6.72;2.83;;;;;;;7.34;100.00;100987.59;5047618;28;20157;-78
2023/03/27 00:54:08;;;;;;;9.32;2.60;;;;;;;7.34;100.00;100992.28;5082080;28;20039;-78
2023/03/27 00:56:37;;;;;;;8.95;2.90;;;;;;;7.30;100.00;100986.44;5088483;27;20089;-78
2023/03/27 00:59:05;;;;;;;8.52;2.78;;;;;;;7.30;100.00;100988.34;5051995;28;20356;-78
2023/03/27 01:01:31;;;;;;;8.23;2.83;;;;;;;7.28;100.00;100996.91;5067609;28;20055;-78
2023/03/27 01:04:00;;;;;;;9.38;3.08;;;;;;;7.30;100.00;101002.16;5064553;28;20020;-78
2023/03/27 01:06:26;;;;;;;8.23;3.22;;;;;;;7.28;100.00;101005.22;5064577;28;20036;-78
2023/03/27 01:08:51;;;;;;;7.03;2.50;;;;;;;7.27;100.00;101017.38;5076763;28;20035;-78
2023/03/27 01:11:23;;;;;;;5.05;2.35;;;;;;;7.26;100.00;101018.44;5105591;28;20051;-78
2023/03/27 01:14:13;;;;;;;7.80;2.28;;;;;;;7.27;100.00;101024.78;5082553;28;20089;-78
2023/03/27 01:16:51;;;;;;;5.32;2.25;;;;;;;7.26;100.00;101026.72;5107096;28;20039;-78
2023/03/27 01:19:37;;;;;;;5.68;2.55;;;;;;;7.25;100.00;101021.47;5097835;28;20020;-78
2023/03/27 01:22:08;;;;;;;7.72;2.50;;;;;;;7.17;100.00;101020.00;5079613;28;20105;-78
2023/03/27 01:24:55;;;;;;;5.88;2.38;;;;;;;7.18;100.00;101023.59;5091500;28;20078;-77
2023/03/27 01:27:50;;;;;;;6.85;2.45;;;;;;;7.11;100.00;101032.09;5087114;28;20072;-78
2023/03/27 01:30:22;;;;;;;6.43;2.40;;;;;;;7.12;100.00;101023.53;5036830;28;20496;-78
2023/03/27 01:33:24;;;;;;;5.70;2.40;;;;;;;7.08;100.00;101033.44;5073494;28;20038;-78
2023/03/27 01:35:52;;;;;;;6.15;2.65;;;;;;;7.06;100.00;101037.56;5089094;28;20118;-78
2023/03/27 01:38:41;;;;;;;3.70;2.00;;;;;;;7.04;100.00;101040.56;5081971;28;20020;-78
2023/03/27 01:41:24;;;;;;;6.60;1.98;;;;;;;7.06;100.00;101040.31;5045930;27;20040;-78
2023/03/27 01:43:57;;;;;;;3.45;2.10;;;;;;;7.03;100.00;101036.13;5059815;28;20564;-78
2023/03/27 01:46:40;;;;;;;8.40;2.35;;;;;;;7.01;100.00;101031.97;5078913;28;20112;-78
2023/03/27 01:49:21;;;;;;;8.05;2.70;;;;;;;7.00;100.00;101035.81;5084783;27;20070;-77
2023/03/27 01:51:59;;;;;;;6.05;2.50;;;;;;;6.98;100.00;101032.47;5092636;28;20093;-78
2023/03/27 01:54:27;;;;;;;7.07;2.42;;;;;;;6.96;100.00;101045.69;5078144;27;20502;-78
2023/03/27 01:57:03;;;;;;;7.25;2.40;;;;;;;6.91;100.00;101052.84;5082996;28;20550;-78
2023/03/27 01:59:32;;;;;;;7.78;2.42;;;;;;;6.92;100.00;101050.91;5118149;27;20077;-78
2023/03/27 02:02:08;;;;;;;5.07;2.45;;;;;;;6.90;100.00;101045.63;5101176;27;20464;-78
2023/03/27 02:04:43;;;;;;;4.00;2.28;;;;;;;6.86;100.00;101057.47;5070431;27;20563;-77
2023/03/27 02:07:11;;;;;;;6.30;3.03;;;;;;;6.89;100.00;101052.25;5100552;27;20191;-78
2023/03/27 02:09:45;;;;;;;11.82;3.30;;;;;;;6.87;100.00;101057.19;5086677;27;20076;-78
2023/03/27 02:12:37;;;;;;;5.85;2.78;;;;;;;6.84;100.00;101049.41;5084895;27;20035;-77
2023/03/27 02:15:14;;;;;;;4.67;2.80;;;;;;;6.85;100.00;101042.81;5115922;27;20074;-78
2023/03/27 02:17:51;;;;;;;5.30;2.85;;;;;;;6.88;100.00;101044.22;5104274;27;20075;-78
2023/03/27 02:20:18;;;;;;;7.88;2.67;;;;;;;6.87;100.00;101048.06;5115350;27;20023;-78
2023/03/27 02:22:47;;;;;;;6.05;2.55;;;;;;;6.87;100.00;101042.56;5066139;28;20033;-78
2023/03/27 02:25:43;;;;;;;5.45;2.35;;;;;;;6.86;100.00;101047.25;5100739;27;20494;-78
2023/03/27 02:28:08;;;;;;;8.32;2.78;;;;;;;6.80;100.00;101051.03;5101707;27;20050;-78
2023/03/27 02:30:52;;;;;;;7.38;2.78;;;;;;;6.83;100.00;101053.28;5103028;27;20023;-78
2023/03/27 02:33:46;;;;;;;5.47;2.67;;;;;;;6.80;100.00;101059.31;5086085;27;20118;-78
2023/03/27 02:36:24;;;;;;;6.68;2.53;;;;;;;6.77;100.00;101056.22;5129718;27;20036;-78
2023/03/27 02:39:16;;;;;;;6.05;2.30;;;;;;;6.73;100.00;101064.19;5116827;28;20077;-78
2023/03/27 02:41:52;;;;;;;5.63;2.25;;;;;;;6.71;100.00;101067.22;5095033;28;20387;-78
2023/03/27 02:44:22;;;;;;;6.18;2.53;;;;;;;6.67;100.00;101073.47;5112017;27;20045;-78
2023/03/27 02:47:07;;;;;;;7.07;2.28;;;;;;;6.62;100.00;101087.22;5119589;27;20024;-78
2023/03/27 02:49:45;;;;;;;8.52;2.78;;;;;;;6.61;100.00;101088.31;5101847;27;20164;-78
2023/03/27 02:52:26;;;;;;;9.45;2.55;;;;;;;6.57;100.00;101095.41;5069258;27;20050;-78
2023/03/27 02:54:54;;;;;;;6.72;2.60;;;;;;;6.53;100.00;101097.84;5119580;27;20027;-78
2023/03/27 02:57:23;;;;;;;5.30;2.67;;;;;;;6.46;100.00;101100.78;5081831;28;20027;-78
2023/03/27 02:59:50;;;;;;;6.68;2.65;;;;;;;6.45;100.00;101090.81;5102751;27;20176;-78
2023/03/27 03:02:21;;;;;;;7.45;2.58;;;;;;;6.40;100.00;101107.28;5102140;27;20031;-78
2023/03/27 03:04:58;;;;;;;5.97;2.30;;;;;;;6.37;100.00;101104.22;5082149;28;20062;-78
2023/03/27 03:07:26;;;;;;;6.78;2.60;;;;;;;6.39;100.00;101102.88;5082497;27;20023;-77
2023/03/27 03:09:54;;;;;;;8.32;3.13;;;;;;;6.41;100.00;101105.41;5083384;28;20118;-78
2023/03/27 03:12:20;;;;;;;8.80;2.67;;;;;;;6.32;100.00;101101.38;5085754;27;20091;-78
2023/03/27 03:14:46;;;;;;;5.90;2.67;;;;;;;6.29;100.00;101110.97;5086451;27;20035;-77
2023/03/27 03:17:12;;;;;;;6.53;2.58;;;;;;;6.24;100.00;101110.88;5083076;28;20027;-78
2023/03/27 03:19:37;;;;;;;4.63;2.83;;;;;;;6.23;100.00;101120.25;5106171;28;20063;-78
2023/03/27 03:22:04;;;;;;;7.35;2.90;;;;;;;6.22;100.00;101130.47;5096073;28;20024;-78
2023/03/27 03:24:29;;;;;;;7.32;2.50;;;;;;;6.16;100.00;101125.13;5085720;27;20027;-78
2023/03/27 03:26:55;;;;;;;7.10;3.00;;;;;;;6.18;100.00;101133.97;5098960;28;20554;-78
2023/03/27 03:29:20;;;;;;;5.88;3.03;;;;;;;6.10;100.00;101135.22;5081851;28;20032;-78
2023/03/27 03:31:45;;;;;;;6.68;3.03;;;;;;;6.07;100.00;101134.88;5113154;27;20364;-78
2023/03/27 03:34:17;;;;;;;5.25;2.70;;;;;;;6.02;100.00;101138.41;5090492;27;20023;-78
2023/03/27 03:36:43;;;;;;;6.40;2.58;;;;;;;6.01;100.00;101131.19;5085462;27;20055;-78
2023/03/27 03:39:10;;;;;;;5.38;2.95;;;;;;;5.98;100.00;101135.28;5081710;28;20062;-78
2023/03/27 03:41:35;;;;;;;6.95;2.75;;;;;;;5.98;100.00;101129.75;5082302;27;20027;-77
2023/03/27 03:44:01;;;;;;;6.30;2.58;;;;;;;5.94;100.00;101134.13;5098776;28;20019;-78
2023/03/27 03:46:26;;;;;;;8.43;3.00;;;;;;;5.95;100.00;101141.28;5079810;28;20129;-78
2023/03/27 03:48:52;;;;;;;9.73;3.08;;;;;;;5.95;100.00;101146.81;5108220;27;20542;-78
2023/03/27 03:51:17;;;;;;;7.13;3.00;;;;;;;5.93;100.00;101148.97;5081511;28;20059;-78
2023/03/27 03:53:42;;;;;;;6.88;3.30;;;;;;;5.93;100.00;101153.63;5091265;28;20031;-77
2023/03/27 03:56:08;;;;;;;7.65;2.95;;;;;;;5.92;100.00;101163.81;5133592;27;20079;-78
2023/03/27 03:58:34;;;;;;;5.20;2.80;;;;;;;5.92;100.00;101163.81;5101227;28;20114;-78
2023/03/27 04:01:01;;;;;;;6.75;2.95;;;;;;;5.92;100.00;101162.97;5097273;28;20039;-77
2023/03/27 04:03:31;;;;;;;4.95;2.90;;;;;;;5.91;100.00;101153.88;5075448;28;20039;-78
2023/03/27 04:05:59;;;;;;;6.90;3.25;;;;;;;5.91;100.00;101151.13;5096799;28;20028;-78
2023/03/27 04:08:27;;;;;;;6.75;3.03;;;;;;;5.93;100.00;101154.47;5068236;28;20026;-77
2023/03/27 04:10:53;;;;;;;10.20;3.00;;;;;;;5.96;100.00;101158.66;5067281;28;20031;-78
2023/03/27 04:13:18;;;;;;;5.50;2.72;;;;;;;5.96;100.00;101165.03;5101127;28;20076;-77
2023/03/27 04:15:44;;;;;;;9.77;3.40;;;;;;;5.90;100.00;101171.47;5101261;28;20046;-78
2023/03/27 04:18:09;;;;;;;9.05;3.28;;;;;;;5.91;100.00;101172.34;5117749;28;20063;-77
2023/03/27 04:20:35;;;;;;;5.35;2.90;;;;;;;5.97;100.00;101176.91;5084442;28;20057;-77
2023/03/27 04:23:01;;;;;;;10.85;3.83;;;;;;;5.92;100.00;101176.75;5080843;28;20027;-77
2023/03/27 04:25:27;;;;;;;7.28;3.17;;;;;;;5.94;100.00;101183.75;5099909;28;20028;-77
2023/03/27 04:27:53;;;;;;;8.10;3.35;;;;;;;5.93;100.00;101183.94;5076597;28;20050;-77
2023/03/27 04:30:21;;;;;;;7.15;3.45;;;;;;;5.86;100.00;101186.84;5101056;28;20039;-77
2023/03/27 04:32:50;;;;;;;10.80;3.90;;;;;;;5.89;100.00;101189.13;5083857;28;20042;-77
2023/03/27 04:35:16;;;;;;;8.43;3.20;;;;;;;5.85;100.00;101190.72;5100903;28;20042;-77
2023/03/27 04:37:42;;;;;;;5.70;3.22;;;;;;;5.84;100.00;101183.50;5097394;28;20028;-77
2023/03/27 04:40:09;;;;;;;5.60;3.58;;;;;;;5.82;100.00;101182.91;5115790;28;20031;-77
2023/03/27 04:42:41;;;;;;;8.60;3.25;;;;;;;5.80;100.00;101187.84;5100935;28;20031;-78
2023/03/27 04:45:08;;;;;;;6.13;3.40;;;;;;;5.82;100.00;101189.28;5085286;28;20126;-77
2023/03/27 04:47:36;;;;;;;9.88;3.85;;;;;;;5.77;100.00;101199.38;5084055;28;20087;-78
2023/03/27 04:50:03;;;;;;;7.45;3.35;;;;;;;5.77;100.00;101199.38;5084461;28;20023;-78
2023/03/27 04:52:29;;;;;;;9.10;3.65;;;;;;;5.67;100.00;101205.50;5080452;28;20714;-78
2023/03/27 04:54:55;;;;;;;6.18;3.20;;;;;;;5.63;100.00;101204.31;5104775;28;20103;-77
2023/03/27 04:57:21;;;;;;;9.13;3.63;;;;;;;5.64;100.00;101207.91;5087009;28;20027;-78
2023/03/27 04:59:47;;;;;;;6.68;3.40;;;;;;;5.63;100.00;101209.84;5087758;28;20023;-78
2023/03/27 05:02:13;;;;;;;12.85;3.97;;;;;;;5.59;100.00;101209.47;5067683;28;20505;-77
2023/03/27 05:04:38;;;;;;;9.25;4.30;;;;;;;5.58;100.00;101213.31;5077038;28;20108;-77
2023/03/27 05:07:04;;;;;;;11.70;5.57;;;;;;;5.57;100.00;101208.03;5091745;28;20035;-77
2023/03/27 05:09:30;;;;;;;16.63;7.60;;;;;;;5.52;100.00;101213.47;5084303;28;20052;-77
2023/03/27 05:11:55;;;;;;;12.50;6.50;;;;;;;5.49;100.00;101208.41;5065937;27;20073;-77
2023/03/27 05:14:21;;;;;;;12.68;5.93;;;;;;;5.48;100.00;101218.59;5104473;27;20387;-77
2023/03/27 05:16:50;;;;;;;11.40;5.63;;;;;;;5.47;100.00;101219.69;5074995;28;20028;-77
2023/03/27 05:19:18;;;;;;;15.77;6.53;;;;;;;5.42;100.00;101222.34;5084667;28;20030;-77
2023/03/27 05:21:45;;;;;;;25.45;18.27;;;;;;;5.42;100.00;101235.28;5085842;27;20388;-78
2023/03/27 05:24:10;;;;;;;26.42;17.92;;;;;;;5.42;100.00;101244.38;5062446;28;20099;-74
2023/03/27 05:26:38;;;;;;;22.65;16.58;;;;;;;5.37;100.00;101244.25;5096983;27;20031;-80
2023/03/27 05:29:04;;;;;;;27.45;17.52;;;;;;;5.38;100.00;101248.69;5046723;28;20035;-80
2023/03/27 05:31:31;;;;;;;24.15;15.38;;;;;;;5.34;100.00;101244.75;5064815;27;20032;-80
2023/03/27 05:33:57;;;;;;;21.48;14.60;;;;;;;5.35;100.00;101249.19;5053304;28;20023;-80
2023/03/27 05:36:23;;;;;;;20.33;13.57;;;;;;;5.33;100.00;101249.41;5080142;27;20542;-80
2023/03/27 05:38:49;;;;;;;18.63;12.07;;;;;;;5.30;100.00;101244.41;5083732;28;20844;-80
2023/03/27 05:41:15;;;;;;;18.80;11.75;;;;;;;5.30;100.00;101249.06;5066536;28;20118;-80
2023/03/27 05:43:41;;;;;;;15.75;10.38;;;;;;;5.29;100.00;101252.88;5079844;28;20024;-80
2023/03/27 05:46:06;;;;;;;13.75;10.32;;;;;;;5.29;100.00;101264.75;5048770;28;20078;-80
2023/03/27 05:48:32;;;;;;;13.43;9.57;;;;;;;5.30;100.00;101252.66;5066370;28;20055;-80
2023/03/27 05:50:57;;;;;;;17.02;9.05;;;;;;;5.27;100.00;101258.66;5063450;28;20385;-80
2023/03/27 05:53:23;;;;;;;13.10;8.65;;;;;;;5.26;100.00;101256.13;5058559;28;20036;-80
2023/03/27 05:55:49;;;;;;;15.27;8.88;;;;;;;5.26;100.00;101261.63;5063822;28;20109;-81
2023/03/27 05:58:14;;;;;;;13.25;8.25;;;;;;;5.27;100.00;101264.16;5079640;28;20024;-80
2023/03/27 06:00:43;;;;;;;12.30;7.38;;;;;;;5.30;100.00;101273.84;5073749;28;20100;-81
2023/03/27 06:03:10;;;;;;;13.65;8.10;;;;;;;5.25;100.00;101280.06;5049365;28;20031;-79
2023/03/27 06:05:37;;;;;;;12.85;7.63;;;;;;;5.29;100.00;101277.66;5043724;28;20027;-80
2023/03/27 06:08:02;;;;;;;10.93;6.85;;;;;;;5.25;100.00;101279.25;5099698;28;20059;-80
2023/03/27 06:10:28;;;;;;;12.70;7.00;;;;;;;5.20;100.00;101285.47;5065600;28;20034;-80
2023/03/27 06:13:02;;;;;;;12.60;6.90;;;;;;;5.22;100.00;101288.00;5049919;28;20024;-80
2023/03/27 06:15:28;;;;;;;13.27;6.25;;;;;;;5.15;100.00;101288.94;5068208;28;20031;-80
2023/03/27 06:17:53;;;;;;;12.57;6.55;;;;;;;5.18;100.00;101281.25;5071547;27;20635;-80
2023/03/27 06:20:20;;;;;;;13.20;6.65;;;;;;;5.19;100.00;101291.22;5068692;28;20038;-79
2023/03/27 06:22:46;;;;;;;12.35;6.70;;;;;;;5.17;100.00;101293.38;5037687;28;20420;-79
2023/03/27 06:25:13;;;;;;;12.63;7.20;;;;;;;5.10;100.00;101299.00;5077350;28;20027;-79
2023/03/27 06:27:40;;;;;;;11.88;6.68;;;;;;;5.11;100.00;101306.19;5048873;28;20054;-80
2023/03/27 06:30:07;;;;;;;12.68;6.47;;;;;;;5.09;100.00;101308.31;5078711;28;20404;-79
2023/03/27 06:32:34;;;;;;;10.82;6.47;;;;;;;5.09;100.00;101306.41;5065088;28;20053;-79
2023/03/27 06:35:01;;;;;;;10.38;6.40;;;;;;;5.08;100.00;101315.75;5065754;28;20055;-79
2023/03/27 06:37:32;;;;;;;10.95;6.20;;;;;;;5.06;100.00;101315.13;5062669;28;20024;-79
2023/03/27 06:39:58;;;;;;;11.07;6.75;;;;;;;5.05;100.00;101313.47;5065631;28;20027;-79
2023/03/27 06:42:23;;;;;;;9.88;6.28;;;;;;;5.05;100.00;101324.50;5050872;28;20035;-79
2023/03/27 06:44:49;;;;;;;8.52;5.90;;;;;;;5.06;100.00;101319.81;5078261;28;20031;-79
2023/03/27 06:47:14;;;;;;;7.90;5.45;;;;;;;5.13;100.00;101324.13;5054924;28;20059;-79
2023/03/27 06:49:40;;;;;;;9.10;5.50;;;;;;;5.18;100.00;101323.41;5064937;28;20045;-79
2023/03/27 06:52:06;;;;;;;9.90;5.30;;;;;;;5.23;100.00;101326.28;5064850;28;20030;-79
2023/03/27 06:54:32;;;;;;;6.80;4.90;;;;;;;5.27;100.00;101326.66;5081647;28;20032;-79
2023/03/27 06:57:00;;;;;;;7.10;5.15;;;;;;;5.32;100.00;101330.38;5062206;28;20021;-79
2023/03/27 06:59:25;;;;;;;6.95;4.68;;;;;;;5.36;100.00;101336.25;5044281;28;20532;-80
2023/03/27 07:01:51;;;;;;;7.32;4.47;;;;;;;5.38;100.00;101340.44;5061583;28;20055;-80
2023/03/27 07:04:16;;;;;;;6.57;4.47;;;;;;;5.43;100.00;101334.19;5062068;28;20035;-79
2023/03/27 07:06:42;;;;;;;8.30;4.28;;;;;;;5.48;100.00;101333.47;5065002;28;20034;-80
2023/03/27 07:09:08;;;;;;;5.90;4.10;;;;;;;5.54;100.00;101349.91;5061699;28;20464;-80
2023/03/27 07:11:33;;;;;;;5.93;4.05;;;;;;;5.62;100.00;101345.94;5055405;28;20023;-80
2023/03/27 07:13:59;;;;;;;7.78;4.20;;;;;;;5.72;100.00;101350.84;5060914;28;20039;-80
2023/03/27 07:16:24;;;;;;;7.80;4.57;;;;;;;5.79;100.00;101349.66;5052491;28;20122;-80
2023/03/27 07:18:50;;;;;;;8.35;4.68;;;;;;;5.93;100.00;101360.41;5080573;28;20020;-80
2023/03/27 07:21:15;;;;;;;7.55;4.43;;;;;;;6.05;100.00;101355.75;5051502;28;20389;-80
2023/03/27 07:23:41;;;;;;;6.95;4.45;;;;;;;6.20;100.00;101358.81;5044896;28;20028;-80
2023/03/27 07:26:07;;;;;;;11.80;5.50;;;;;;;6.35;100.00;101355.53;5044623;28;20567;-80
2023/03/27 07:28:32;;;;;;;17.70;7.50;;;;;;;6.52;100.00;101363.88;5044168;28;20554;-80
2023/03/27 07:30:58;;;;;;;11.23;5.50;;;;;;;6.66;100.00;101361.66;5045002;28;20028;-80
2023/03/27 07:33:23;;;;;;;12.70;6.22;;;;;;;6.81;100.00;101364.69;5046857;28;20032;-80
2023/03/27 07:35:49;;;;;;;11.95;6.10;;;;;;;6.94;100.00;101364.38;5080398;28;20034;-80
2023/03/27 07:38:16;;;;;;;11.80;6.50;;;;;;;7.06;100.00;101366.22;5074777;28;20084;-81
2023/03/27 07:40:49;;;;;;;14.00;6.50;;;;;;;7.18;100.00;101368.91;5077701;28;20699;-80
2023/03/27 07:43:15;;;;;;;15.77;6.72;;;;;;;7.29;100.00;101374.34;5077939;28;20077;-80
2023/03/27 07:45:40;;;;;;;12.93;6.75;;;;;;;7.43;100.00;101379.53;5046379;28;20024;-80
2023/03/27 07:48:07;;;;;;;11.05;6.10;;;;;;;7.51;100.00;101385.47;5077234;28;20124;-81
2023/03/27 07:50:33;;;;;;;9.55;5.50;;;;;;;7.65;100.00;101390.66;5044153;28;20153;-81
2023/03/27 07:52:59;;;;;;;9.00;4.95;;;;;;;7.72;100.00;101396.88;5076963;28;20039;-81
2023/03/27 07:55:28;;;;;;;9.73;4.32;;;;;;;7.81;100.00;101400.88;5077212;28;20032;-80
2023/03/27 07:57:54;;;;;;;8.85;4.28;;;;;;;7.92;100.00;101401.88;5064955;28;20062;-81
2023/03/27 08:00:21;;;;;;;11.65;5.00;;;;;;;8.00;100.00;101399.50;5080382;28;20051;-81
2023/03/27 08:02:49;;;;;;;6.70;4.43;;;;;;;8.07;100.00;101391.81;5062283;28;20023;-81
2023/03/27 08:05:14;;;;;;;8.13;5.13;;;;;;;8.13;100.00;101395.50;5064463;28;20119;-81
2023/03/27 08:07:41;;;;;;;11.23;5.53;;;;;;;8.21;100.00;101400.59;5044328;28;20055;-81
2023/03/27 08:10:07;;;;;;;7.97;4.78;;;;;;;8.29;100.00;101413.97;5038661;28;20586;-81
2023/03/27 08:12:33;;;;;;;9.93;5.70;;;;;;;8.41;100.00;101411.16;5060702;28;20034;-81
2023/03/27 08:14:58;;;;;;;10.50;4.93;;;;;;;8.53;100.00;101412.94;5075733;28;20111;-82
2023/03/27 08:17:28;;;;;;;10.55;4.38;;;;;;;8.67;100.00;101409.50;5058840;28;20443;-82
2023/03/27 08:19:53;;;;;;;10.07;3.90;;;;;;;8.84;100.00;101408.59;5035952;28;20050;-82
2023/03/27 08:22:20;;;;;;;11.77;3.80;;;;;;;8.98;100.00;101409.84;5062690;28;20027;-82
2023/03/27 08:24:46;;;;;;;10.52;3.53;;;;;;;9.15;100.00;101421.63;5081037;28;20026;-82
2023/03/27 08:27:12;;;;;;;8.95;3.00;;;;;;;9.32;100.00;101415.97;5094935;28;20032;-82
2023/03/27 08:29:37;;;;;;;7.57;2.60;;;;;;;9.48;100.00;101425.28;5066559;28;20080;-82
2023/03/27 08:32:04;;;;;;;11.40;3.03;;;;;;;9.63;100.00;101421.78;5080266;28;20020;-82
2023/03/27 08:34:29;;;;;;;8.70;2.70;;;;;;;9.81;100.00;101421.38;5053908;28;20032;-82
2023/03/27 08:36:55;;;;;;;6.82;2.38;;;;;;;10.00;100.00;101432.88;5089587;28;20063;-82
2023/03/27 08:39:23;;;;;;;13.95;3.03;;;;;;;10.15;100.00;101432.13;5060479;28;20033;-82
2023/03/27 08:41:56;;;;;;;9.00;2.63;;;;;;;10.32;100.00;101434.75;5067747;28;20533;-82
2023/03/27 08:44:23;;;;;;;8.48;2.20;;;;;;;10.46;100.00;101429.53;5060955;28;20503;-82
2023/03/27 08:46:50;;;;;;;7.57;2.22;;;;;;;10.63;100.00;101430.16;5039432;27;20526;-83
2023/03/27 08:49:17;;;;;;;8.90;2.08;;;;;;;10.80;100.00;101427.16;5121561;27;20061;-82
2023/03/27 08:51:51;;;;;;;6.20;2.20;;;;;;;10.94;100.00;101428.28;5100890;28;20067;-82
2023/03/27 08:54:24;;;;;;;8.93;2.00;;;;;;;11.12;100.00;101426.13;5106698;27;20414;-82
2023/03/27 08:56:50;;;;;;;9.05;1.55;;;;;;;11.30;100.00;101425.59;5099855;28;20074;-82
2023/03/27 08:59:19;;;;;;;10.80;1.90;;;;;;;11.42;100.00;101419.75;5104104;27;20055;-82
2023/03/27 09:01:52;;;;;;;6.70;1.70;;;;;;;11.54;100.00;101427.84;5087434;27;20106;-82
2023/03/27 09:04:33;;;;;;;6.60;1.50;;;;;;;11.69;100.00;101424.19;5100992;27;20023;-82
2023/03/27 09:07:07;;;;;;;5.40;1.50;;;;;;;11.82;100.00;101418.91;5101051;28;20063;-82
2023/03/27 09:09:51;;;;;;;7.18;1.90;;;;;;;12.00;100.00;101425.03;5094059;27;20027;-82
2023/03/27 09:12:27;;;;;;;7.03;1.58;;;;;;;12.16;100.00;101429.44;5103898;27;20067;-81
2023/03/27 09:15:21;;;;;;;6.78;2.35;;;;;;;12.34;100.00;101441.94;5100219;27;20495;-82
2023/03/27 09:17:59;;;;;;;9.05;2.58;;;;;;;12.43;100.00;101439.41;5088731;27;20035;-82
2023/03/27 09:20:35;;;;;;;7.28;2.30;;;;;;;12.53;100.00;101440.19;5099838;28;20468;-82
2023/03/27 09:23:25;;;;;;;6.22;2.10;;;;;;;12.67;100.00;101434.00;5085265;27;20023;-83
2023/03/27 09:25:59;;;;;;;4.65;1.65;;;;;;;12.79;100.00;101448.44;5086487;27;20078;-83
2023/03/27 09:28:39;;;;;;;3.97;1.88;;;;;;;12.94;100.00;101450.31;5066584;28;20064;-83
2023/03/27 09:31:28;;;;;;;6.95;2.60;;;;;;;13.05;100.00;101440.78;5100456;27;20038;-83
2023/03/27 09:33:54;;;;;;;5.20;1.85;;;;;;;13.21;100.00;101451.84;5104839;27;20164;-82
2023/03/27 09:36:20;;;;;;;6.88;2.20;;;;;;;13.27;100.00;101448.75;5099047;28;20035;-82
2023/03/27 09:38:49;;;;;;;4.65;1.65;;;;;;;13.44;100.00;101445.56;5059302;28;20536;-82
2023/03/27 09:41:21;;;;;;;7.60;1.98;;;;;;;13.56;100.00;101445.19;5083815;27;20034;-82
2023/03/27 09:44:24;;;;;;;4.82;1.70;;;;;;;13.65;100.00;101446.25;5103468;27;20024;-83
2023/03/27 09:46:53;;;;;;;7.80;2.70;;;;;;;13.75;100.00;101448.09;5103918;27;20038;-82
2023/03/27 09:49:19;;;;;;;6.25;1.77;;;;;;;13.83;100.00;101453.88;5086612;27;20031;-82
2023/03/27 09:51:52;;;;;;;7.70;2.13;;;;;;;13.94;100.00;101446.25;5112846;28;20042;-82
2023/03/27 09:54:19;;;;;;;4.80;1.88;;;;;;;14.00;100.00;101447.84;5058184;28;20028;-83
2023/03/27 09:57:11;;;;;;;5.13;2.08;;;;;;;14.14;100.00;101448.00;5064953;28;20042;-83
2023/03/27 09:59:39;;;;;;;4.55;1.90;;;;;;;14.22;100.00;101443.72;5082827;27;20042;-83
2023/03/27 10:02:26;;;;;;;4.78;1.50;;;;;;;14.32;100.00;101443.63;5085025;27;20063;-83
2023/03/27 10:04:59;;;;;;;3.50;1.45;;;;;;;14.44;100.00;101441.25;5074751;27;20031;-83
2023/03/27 10:07:25;;;;;;;4.97;1.20;;;;;;;14.50;100.00;101454.03;5078732;28;20118;-82
2023/03/27 10:10:11;;;;;;;3.20;1.08;;;;;;;14.62;93.56;101447.22;5069670;27;20062;-83
2023/03/27 10:12:37;;;;;;;1.63;0.70;;;;;;;14.72;94.75;101447.91;5084382;27;20031;-83
2023/03/27 10:15:04;;;;;;;3.92;0.85;;;;;;;14.79;94.46;101433.56;5082492;28;20058;-83
2023/03/27 10:17:37;;;;;;;3.60;0.70;;;;;;;14.86;93.15;101436.81;5084606;27;20039;-83
2023/03/27 10:20:21;;;;;;;1.58;0.70;;;;;;;14.93;93.18;101442.03;5066470;27;20114;-82
2023/03/27 10:22:50;;;;;;;3.47;1.15;;;;;;;14.91;84.94;101441.53;5065381;28;20023;-83
2023/03/27 10:25:21;;;;;;;4.53;1.10;;;;;;;15.04;80.96;101442.72;5099750;27;20027;-83
2023/03/27 10:27:46;;;;;;;6.40;1.30;;;;;;;15.14;82.53;101443.41;5069263;27;20039;-83
2023/03/27 10:30:33;;;;;;;3.03;1.02;;;;;;;15.32;87.56;101441.78;5093788;27;20035;-83
2023/03/27 10:32:58;;;;;;;4.28;0.93;;;;;;;15.48;79.90;101439.53;5083441;28;20055;-83
2023/03/27 10:35:38;;;;;;;4.20;0.80;;;;;;;15.62;75.53;101439.59;5083880;27;20023;-83
2023/03/27 10:38:14;;;;;;;4.25;0.95;;;;;;;15.69;80.19;101442.88;5086588;27;20029;-83
2023/03/27 10:40:41;;;;;;;4.88;1.15;;;;;;;15.75;85.82;101441.66;5065545;28;20028;-83
2023/03/27 10:43:40;;;;;;;4.82;0.80;;;;;;;15.75;79.82;101449.22;5086818;27;20053;-82
2023/03/27 10:46:10;;;;;;;3.00;1.13;;;;;;;15.86;81.16;101445.94;5072948;28;20035;-83
2023/03/27 10:49:04;;;;;;;3.47;0.70;;;;;;;15.91;75.77;101446.97;5084346;27;20039;-83
2023/03/27 10:51:45;;;;;;;3.38;1.02;;;;;;;15.99;80.27;101449.91;5101647;27;20027;-83
2023/03/27 10:54:37;;;;;;;2.72;0.70;;;;;;;16.07;79.71;101452.00;5106794;27;20031;-83
2023/03/27 10:57:17;;;;;;;2.70;0.82;;;;;;;16.06;75.43;101455.13;5103649;27;20019;-83
2023/03/27 10:59:44;;;;;;;2.40;0.82;;;;;;;16.16;73.93;101454.94;5081732;28;20088;-83
2023/03/27 11:02:31;;;;;;;2.92;0.90;;;;;;;16.21;75.20;101449.22;5092072;27;20103;-83
2023/03/27 11:05:03;;;;;;;5.00;0.80;;;;;;;16.24;72.63;101451.41;5085661;27;20019;-83
2023/03/27 11:07:36;;;;;;;3.38;0.85;;;;;;;16.30;72.18;101443.75;5098429;27;20118;-82
2023/03/27 11:10:11;;;;;;;2.63;0.85;;;;;;;16.38;68.46;101444.97;5102557;27;20030;-83
2023/03/27 11:12:37;;;;;;;4.80;0.98;;;;;;;16.55;67.66;101456.41;5101132;27;20051;-83
2023/03/27 11:15:09;;;;;;;3.40;0.70;;;;;;;16.62;68.81;101462.44;5084387;27;20491;-83
2023/03/27 11:17:50;;;;;;;4.00;0.90;;;;;;;16.69;67.07;101457.25;5092317;27;20080;-82
2023/03/27 11:20:21;;;;;;;7.22;1.10;;;;;;;16.70;68.01;101453.28;5068057;27;20402;-83
2023/03/27 11:22:54;;;;;;;2.28;0.80;;;;;;;16.79;66.25;101455.38;5080986;28;20028;-83
2023/03/27 11:25:36;;;;;;;4.00;0.82;;;;;;;16.89;63.30;101461.63;5081419;28;20115;-83
2023/03/27 11:28:20;;;;;;;4.28;1.05;;;;;;;17.03;63.09;101455.97;5099587;28;20055;-83
2023/03/27 11:30:54;;;;;;;3.40;1.00;;;;;;;17.13;63.85;101455.75;5107189;27;20032;-83
2023/03/27 11:33:41;;;;;;;2.97;0.82;;;;;;;17.26;63.46;101461.66;5059997;27;20031;-83
2023/03/27 11:36:33;;;;;;;4.20;0.90;;;;;;;17.28;62.50;101467.78;5117804;27;20515;-83